WXM80 ListenWXM80 Stop

You find our weather info also at:

UK Metoffice

WeatherCloud

Weather Underground

Northeastern Weather Network

AWEKAS

Citizen Weather Observer Program (CWOP)

HAMweather, WeatherForYou, PWS Weather


Weather Underground History page Text

Daily Summary for December 27, 2016 Units:  English    Metric   Both
« Previous Day
Next Day »
Daily Weekly Monthly Yearly Custom
  High: Low: Average:
Temperature: 59.1 °F 38.2 °F 52.2 °F
Dew Point: 54.4 °F 32.9 °F 46.2 °F
Humidity: 97 % 56 % 81 %
Wind Speed: 11.8 mph 0.0 mph 4.2 mph
Wind Gust: 29.0 mph - -
Wind:- - SW
Pressure: 30.07 in 29.72 in -
Precipitation: 0.00 in    
Historical Graphs
 
 
Tabular Data for December 27, 2016
Time Temperature Dew Point Pressure Wind Wind Speed Wind Gust Humidity Rainfall Rate (Hourly)
00:00 51.2 °F 50.4 °F 30.07 in SSW 4.5 mph 29.0 mph 97 % 0.00 in
00:06 51.1 °F 50.3 °F 30.06 in SW 4.5 mph 29.0 mph 97 % 0.00 in
00:11 51.1 °F 50.3 °F 30.05 in SSW 9.3 mph 29.0 mph 97 % 0.00 in
00:16 51.0 °F 49.9 °F 30.05 in SW 5.0 mph 29.0 mph 96 % 0.00 in
00:21 51.0 °F 49.9 °F 30.05 in SSW 6.6 mph 29.0 mph 96 % 0.00 in
00:26 51.0 °F 49.9 °F 30.04 in SW 6.2 mph 29.0 mph 96 % 0.00 in
00:31 50.9 °F 49.8 °F 30.04 in SSW 2.8 mph 29.0 mph 96 % 0.00 in
00:36 50.9 °F 49.8 °F 30.03 in SW 4.3 mph 29.0 mph 96 % 0.00 in
00:41 50.9 °F 49.8 °F 30.03 in SSW 4.1 mph 29.0 mph 96 % 0.00 in
00:46 50.8 °F 49.7 °F 30.02 in SW 3.0 mph 29.0 mph 96 % 0.00 in
00:51 50.8 °F 49.7 °F 30.02 in SSW 6.2 mph 29.0 mph 96 % 0.00 in
00:56 50.8 °F 49.7 °F 30.02 in SW 5.6 mph 29.0 mph 96 % 0.00 in
01:01 50.7 °F 49.6 °F 30.01 in SW 5.7 mph 29.0 mph 96 % 0.00 in
01:06 50.7 °F 49.6 °F 30.01 in SW 5.1 mph 29.0 mph 96 % 0.00 in
01:11 50.7 °F 49.6 °F 30.01 in SW 6.9 mph 29.0 mph 96 % 0.00 in
01:16 50.8 °F 49.7 °F 30.00 in SSW 1.8 mph 29.0 mph 96 % 0.00 in
01:21 50.8 °F 49.4 °F 29.99 in WSW 3.8 mph 29.0 mph 95 % 0.00 in
01:26 50.8 °F 49.4 °F 29.99 in South 1.9 mph 29.0 mph 95 % 0.00 in
01:31 50.8 °F 49.4 °F 29.97 in South 3.0 mph 29.0 mph 95 % 0.00 in
01:37 50.8 °F 49.4 °F 29.97 in South 3.8 mph 29.0 mph 95 % 0.00 in
01:42 50.8 °F 49.4 °F 29.96 in SSW 5.2 mph 29.0 mph 95 % 0.00 in
01:47 50.8 °F 49.4 °F 29.96 in South 7.7 mph 29.0 mph 95 % 0.00 in
01:52 51.1 °F 50.0 °F 29.96 in SW 6.8 mph 29.0 mph 96 % 0.00 in
01:57 51.3 °F 49.9 °F 29.96 in SSW 5.1 mph 29.0 mph 95 % 0.00 in
02:02 51.4 °F 50.0 °F 29.95 in WSW 3.9 mph 29.0 mph 95 % 0.00 in
02:07 51.5 °F 50.1 °F 29.94 in SW 7.6 mph 29.0 mph 95 % 0.00 in
02:12 51.7 °F 50.3 °F 29.94 in South 7.0 mph 29.0 mph 95 % 0.00 in
02:17 51.8 °F 50.4 °F 29.94 in SW 6.0 mph 29.0 mph 95 % 0.00 in
02:22 52.0 °F 50.6 °F 29.94 in SSW 2.9 mph 29.0 mph 95 % 0.00 in
02:27 52.1 °F 50.7 °F 29.93 in NNW 7.0 mph 29.0 mph 95 % 0.00 in
02:32 52.2 °F 50.8 °F 29.93 in SSW 8.6 mph 29.0 mph 95 % 0.00 in
02:37 52.3 °F 50.9 °F 29.93 in SW 7.0 mph 29.0 mph 95 % 0.00 in
02:42 52.4 °F 51.0 °F 29.93 in South 6.2 mph 29.0 mph 95 % 0.00 in
02:47 52.6 °F 51.2 °F 29.93 in WSW 6.5 mph 29.0 mph 95 % 0.00 in
02:52 52.7 °F 51.3 °F 29.93 in WSW 8.8 mph 29.0 mph 95 % 0.00 in
02:57 52.8 °F 51.4 °F 29.93 in SW 10.2 mph 29.0 mph 95 % 0.00 in
03:02 52.8 °F 51.1 °F 29.93 in SSW 8.8 mph 29.0 mph 94 % 0.00 in
03:07 52.9 °F 51.2 °F 29.92 in South 7.7 mph 29.0 mph 94 % 0.00 in
03:12 52.9 °F 51.2 °F 29.92 in SSW 5.7 mph 29.0 mph 94 % 0.00 in
03:18 53.0 °F 51.3 °F 29.90 in SW 8.3 mph 29.0 mph 94 % 0.00 in
03:23 53.0 °F 51.3 °F 29.89 in South 7.0 mph 29.0 mph 94 % 0.00 in
03:28 53.1 °F 51.4 °F 29.89 in WSW 7.8 mph 29.0 mph 94 % 0.00 in
03:33 53.2 °F 51.5 °F 29.88 in SW 7.3 mph 29.0 mph 94 % 0.00 in
03:38 53.2 °F 51.5 °F 29.88 in South 7.2 mph 29.0 mph 94 % 0.00 in
03:43 53.3 °F 51.6 °F 29.88 in SSW 8.0 mph 29.0 mph 94 % 0.00 in
03:48 53.3 °F 51.6 °F 29.88 in SSW 8.1 mph 29.0 mph 94 % 0.00 in
03:53 53.4 °F 51.7 °F 29.88 in West 7.0 mph 29.0 mph 94 % 0.00 in
03:58 53.5 °F 51.8 °F 29.88 in SSW 4.2 mph 29.0 mph 94 % 0.00 in
04:03 53.5 °F 51.8 °F 29.88 in South 7.0 mph 29.0 mph 94 % 0.00 in
04:08 53.5 °F 51.5 °F 29.88 in South 5.5 mph 29.0 mph 93 % 0.00 in
04:13 53.6 °F 51.6 °F 29.87 in SSW 3.5 mph 29.0 mph 93 % 0.00 in
04:18 53.6 °F 51.6 °F 29.87 in South 7.6 mph 29.0 mph 93 % 0.00 in
04:23 53.7 °F 51.7 °F 29.86 in SSW 4.9 mph 29.0 mph 93 % 0.00 in
04:29 53.8 °F 51.8 °F 29.86 in SSW 6.8 mph 29.0 mph 93 % 0.00 in
04:34 53.9 °F 51.9 °F 29.86 in South 8.3 mph 29.0 mph 93 % 0.00 in
04:39 53.9 °F 51.9 °F 29.86 in SSW 6.4 mph 29.0 mph 93 % 0.00 in
04:44 54.0 °F 52.0 °F 29.85 in SSW 7.6 mph 29.0 mph 93 % 0.00 in
04:49 54.0 °F 52.0 °F 29.84 in South 8.0 mph 29.0 mph 93 % 0.00 in
04:54 54.0 °F 52.0 °F 29.84 in South 7.6 mph 29.0 mph 93 % 0.00 in
04:59 54.0 °F 52.0 °F 29.84 in SW 6.4 mph 29.0 mph 93 % 0.00 in
05:04 53.9 °F 51.9 °F 29.84 in SSW 6.6 mph 29.0 mph 93 % 0.00 in
05:09 53.9 °F 51.9 °F 29.85 in SW 4.8 mph 29.0 mph 93 % 0.00 in
05:14 53.8 °F 51.8 °F 29.84 in South 4.0 mph 29.0 mph 93 % 0.00 in
05:19 53.8 °F 51.5 °F 29.83 in SSW 6.0 mph 12.0 mph 92 % 0.00 in
05:24 53.7 °F 51.7 °F 29.83 in SSW 6.0 mph 13.0 mph 93 % 0.00 in
05:29 53.7 °F 51.7 °F 29.83 in SSW 6.0 mph 10.0 mph 93 % 0.00 in
05:34 53.8 °F 51.8 °F 29.84 in SW 6.0 mph 14.0 mph 93 % 0.00 in
05:39 53.8 °F 51.8 °F 29.84 in SW 9.0 mph 13.0 mph 93 % 0.00 in
05:44 53.9 °F 51.9 °F 29.84 in SSW 9.2 mph 29.0 mph 93 % 0.00 in
05:49 54.1 °F 52.1 °F 29.83 in SSW 9.1 mph 29.0 mph 93 % 0.00 in
05:54 54.2 °F 52.2 °F 29.83 in SSW 6.0 mph 15.0 mph 93 % 0.00 in
05:59 54.3 °F 52.0 °F 29.83 in SW 7.1 mph 29.0 mph 92 % 0.00 in
06:04 54.4 °F 52.1 °F 29.84 in SW 7.4 mph 29.0 mph 92 % 0.00 in
06:09 54.4 °F 52.1 °F 29.83 in South 5.8 mph 29.0 mph 92 % 0.00 in
06:15 54.4 °F 52.1 °F 29.83 in West 4.4 mph 29.0 mph 92 % 0.00 in
06:20 54.4 °F 52.1 °F 29.83 in SW 3.7 mph 29.0 mph 92 % 0.00 in
06:25 54.4 °F 52.1 °F 29.82 in SSW 5.4 mph 29.0 mph 92 % 0.00 in
06:30 54.4 °F 52.1 °F 29.82 in SSW 6.6 mph 29.0 mph 92 % 0.00 in
06:35 54.4 °F 52.1 °F 29.82 in SSW 4.3 mph 29.0 mph 92 % 0.00 in
06:40 54.4 °F 52.1 °F 29.81 in SSW 4.5 mph 29.0 mph 92 % 0.00 in
06:45 54.4 °F 52.1 °F 29.81 in SW 3.3 mph 29.0 mph 92 % 0.00 in
06:50 54.3 °F 52.0 °F 29.81 in SSW 2.9 mph 29.0 mph 92 % 0.00 in
06:55 54.3 °F 52.0 °F 29.81 in SSW 4.9 mph 29.0 mph 92 % 0.00 in
07:00 54.2 °F 51.9 °F 29.81 in WSW 2.5 mph 29.0 mph 92 % 0.00 in
07:05 54.2 °F 51.9 °F 29.81 in SW 3.0 mph 29.0 mph 92 % 0.00 in
07:10 54.1 °F 51.8 °F 29.80 in SSW 3.5 mph 29.0 mph 92 % 0.00 in
07:15 54.1 °F 51.8 °F 29.80 in SW 3.5 mph 29.0 mph 92 % 0.00 in
07:20 54.1 °F 51.8 °F 29.80 in SW 4.3 mph 29.0 mph 92 % 0.00 in
07:25 54.1 °F 51.8 °F 29.81 in SW 3.0 mph 29.0 mph 92 % 0.00 in
07:31 54.1 °F 51.8 °F 29.81 in SW 4.5 mph 29.0 mph 92 % 0.00 in
07:36 54.1 °F 51.8 °F 29.81 in SW 2.8 mph 29.0 mph 92 % 0.00 in
07:41 54.1 °F 51.8 °F 29.80 in SW 1.5 mph 29.0 mph 92 % 0.00 in
07:46 54.1 °F 51.8 °F 29.81 in SSW 1.7 mph 29.0 mph 92 % 0.00 in
07:51 54.1 °F 51.8 °F 29.80 in SW 0.9 mph 29.0 mph 92 % 0.00 in
07:56 54.1 °F 51.8 °F 29.80 in SW 3.4 mph 29.0 mph 92 % 0.00 in
08:01 54.1 °F 52.1 °F 29.79 in South 1.4 mph 29.0 mph 93 % 0.00 in
08:06 54.2 °F 52.2 °F 29.78 in SSW 1.6 mph 29.0 mph 93 % 0.00 in
08:11 54.2 °F 52.2 °F 29.78 in SW 2.0 mph 29.0 mph 93 % 0.00 in
08:16 54.4 °F 52.4 °F 29.78 in WSW 3.5 mph 29.0 mph 93 % 0.00 in
08:21 54.4 °F 52.4 °F 29.79 in SSW 4.1 mph 29.0 mph 93 % 0.00 in
08:26 54.5 °F 52.5 °F 29.79 in WSW 3.1 mph 29.0 mph 93 % 0.00 in
08:31 54.6 °F 52.6 °F 29.79 in SSW 4.7 mph 29.0 mph 93 % 0.00 in
08:36 54.8 °F 52.8 °F 29.79 in SW 2.6 mph 29.0 mph 93 % 0.00 in
08:41 54.9 °F 52.9 °F 29.79 in WSW 2.6 mph 29.0 mph 93 % 0.00 in
08:46 55.1 °F 53.1 °F 29.79 in SSW 3.4 mph 29.0 mph 93 % 0.00 in
08:51 55.4 °F 53.4 °F 29.78 in SSW 3.5 mph 29.0 mph 93 % 0.00 in
08:56 55.6 °F 53.6 °F 29.78 in WSW 2.8 mph 29.0 mph 93 % 0.00 in
09:02 55.8 °F 53.8 °F 29.78 in SSW 5.4 mph 29.0 mph 93 % 0.00 in
09:07 56.1 °F 53.8 °F 29.78 in SSW 4.2 mph 29.0 mph 92 % 0.00 in
09:12 56.3 °F 54.0 °F 29.78 in SW 6.5 mph 29.0 mph 92 % 0.00 in
09:17 56.6 °F 54.0 °F 29.78 in SW 2.8 mph 29.0 mph 91 % 0.00 in
09:22 56.8 °F 54.2 °F 29.78 in WSW 4.9 mph 29.0 mph 91 % 0.00 in
09:27 57.0 °F 54.4 °F 29.78 in SSW 2.9 mph 29.0 mph 91 % 0.00 in
09:32 57.1 °F 54.2 °F 29.79 in SW 4.4 mph 29.0 mph 90 % 0.00 in
09:37 57.3 °F 54.4 °F 29.78 in WSW 7.9 mph 29.0 mph 90 % 0.00 in
09:42 57.4 °F 54.2 °F 29.78 in West 5.0 mph 29.0 mph 89 % 0.00 in
09:47 57.4 °F 54.2 °F 29.79 in SW 2.9 mph 29.0 mph 89 % 0.00 in
09:52 57.5 °F 54.3 °F 29.78 in WSW 3.6 mph 29.0 mph 89 % 0.00 in
09:57 57.5 °F 54.3 °F 29.79 in SSW 3.1 mph 29.0 mph 89 % 0.00 in
10:02 57.6 °F 54.4 °F 29.79 in WSW 3.6 mph 29.0 mph 89 % 0.00 in
10:07 57.6 °F 54.1 °F 29.79 in WSW 5.6 mph 29.0 mph 88 % 0.00 in
10:12 57.6 °F 54.1 °F 29.78 in WSW 5.1 mph 29.0 mph 88 % 0.00 in
10:17 57.5 °F 54.0 °F 29.78 in WSW 5.5 mph 29.0 mph 88 % 0.00 in
10:22 57.5 °F 53.7 °F 29.77 in WSW 2.6 mph 29.0 mph 87 % 0.00 in
10:27 57.4 °F 53.6 °F 29.76 in SW 3.2 mph 29.0 mph 87 % 0.00 in
10:32 57.4 °F 53.6 °F 29.76 in WSW 4.3 mph 29.0 mph 87 % 0.00 in
10:37 57.4 °F 53.6 °F 29.76 in SW 4.2 mph 29.0 mph 87 % 0.00 in
10:42 57.3 °F 53.5 °F 29.77 in NW 4.8 mph 29.0 mph 87 % 0.00 in
10:47 57.3 °F 53.5 °F 29.77 in WSW 5.2 mph 29.0 mph 87 % 0.00 in
10:52 57.2 °F 53.4 °F 29.76 in SW 6.3 mph 29.0 mph 87 % 0.00 in
10:57 57.1 °F 53.3 °F 29.76 in West 4.2 mph 29.0 mph 87 % 0.00 in
11:02 57.0 °F 53.2 °F 29.77 in West 5.1 mph 29.0 mph 87 % 0.00 in
11:08 56.8 °F 53.0 °F 29.77 in WSW 5.5 mph 29.0 mph 87 % 0.00 in
11:13 56.7 °F 53.5 °F 29.77 in West 5.1 mph 29.0 mph 89 % 0.00 in
11:18 56.5 °F 53.3 °F 29.77 in WSW 4.9 mph 29.0 mph 89 % 0.00 in
11:23 56.2 °F 53.3 °F 29.76 in West 5.0 mph 29.0 mph 90 % 0.00 in
11:28 55.9 °F 53.3 °F 29.76 in WSW 8.7 mph 29.0 mph 91 % 0.00 in
11:33 55.8 °F 53.2 °F 29.76 in SW 5.0 mph 29.0 mph 91 % 0.00 in
11:38 55.9 °F 53.6 °F 29.75 in SW 6.2 mph 29.0 mph 92 % 0.00 in
11:43 56.0 °F 53.7 °F 29.75 in SSW 9.3 mph 29.0 mph 92 % 0.00 in
11:48 56.2 °F 53.9 °F 29.75 in WSW 5.9 mph 29.0 mph 92 % 0.00 in
11:53 56.4 °F 54.1 °F 29.74 in SW 7.0 mph 29.0 mph 92 % 0.00 in
11:58 56.6 °F 54.0 °F 29.74 in SW 8.0 mph 29.0 mph 91 % 0.00 in
12:03 56.8 °F 54.2 °F 29.74 in SW 4.9 mph 29.0 mph 91 % 0.00 in
12:09 57.1 °F 54.2 °F 29.73 in SW 10.9 mph 29.0 mph 90 % 0.00 in
12:14 57.5 °F 54.3 °F 29.73 in WSW 11.7 mph 29.0 mph 89 % 0.00 in
12:19 57.9 °F 54.1 °F 29.73 in WSW 9.3 mph 29.0 mph 87 % 0.00 in
12:24 58.3 °F 53.8 °F 29.73 in SW 10.1 mph 29.0 mph 85 % 0.00 in
12:29 58.7 °F 53.5 °F 29.73 in West 4.8 mph 29.0 mph 83 % 0.00 in
12:34 58.9 °F 53.1 °F 29.74 in WSW 9.0 mph 29.0 mph 81 % 0.00 in
12:39 59.1 °F 52.9 °F 29.73 in WSW 6.6 mph 29.0 mph 80 % 0.00 in
12:44 59.1 °F 52.2 °F 29.73 in West 5.6 mph 29.0 mph 78 % 0.00 in
12:49 59.1 °F 51.5 °F 29.73 in West 8.7 mph 29.0 mph 76 % 0.00 in
12:54 59.0 °F 51.1 °F 29.73 in West 11.8 mph 29.0 mph 75 % 0.00 in
12:59 58.9 °F 50.6 °F 29.73 in WSW 11.0 mph 29.0 mph 74 % 0.00 in
13:04 58.9 °F 50.3 °F 29.73 in SW 5.8 mph 29.0 mph 73 % 0.00 in
13:09 59.0 °F 49.6 °F 29.73 in WSW 11.5 mph 29.0 mph 71 % 0.00 in
13:14 59.0 °F 49.6 °F 29.73 in WSW 6.0 mph 14.0 mph 71 % 0.00 in
13:19 59.0 °F 49.2 °F 29.74 in West 7.0 mph 15.0 mph 70 % 0.00 in
13:24 58.9 °F 48.4 °F 29.73 in WSW 8.0 mph 14.0 mph 68 % 0.00 in
13:29 58.9 °F 48.3 °F 29.74 in WSW 7.0 mph 12.0 mph 68 % 0.00 in
13:34 58.7 °F 47.8 °F 29.74 in West 5.0 mph 12.0 mph 67 % 0.00 in
13:39 58.7 °F 47.3 °F 29.74 in WSW 5.0 mph 13.0 mph 66 % 0.00 in
13:44 58.5 °F 46.8 °F 29.74 in WSW 6.0 mph 13.0 mph 65 % 0.00 in
13:49 58.4 °F 45.8 °F 29.73 in West 6.0 mph 13.0 mph 63 % 0.00 in
13:54 58.4 °F 45.4 °F 29.73 in SW 5.2 mph 29.0 mph 62 % 0.00 in
13:59 58.5 °F 44.7 °F 29.73 in SW 4.9 mph 29.0 mph 60 % 0.00 in
14:04 58.7 °F 44.4 °F 29.73 in WNW 5.8 mph 29.0 mph 59 % 0.00 in
14:10 58.8 °F 44.0 °F 29.73 in West 4.5 mph 29.0 mph 58 % 0.00 in
14:15 58.8 °F 44.0 °F 29.72 in West 5.5 mph 29.0 mph 58 % 0.00 in
14:20 58.7 °F 43.5 °F 29.73 in WNW 5.7 mph 29.0 mph 57 % 0.00 in
14:25 58.6 °F 43.4 °F 29.72 in WNW 4.8 mph 29.0 mph 57 % 0.00 in
14:30 58.5 °F 43.3 °F 29.72 in West 3.5 mph 29.0 mph 57 % 0.00 in
14:35 58.4 °F 43.2 °F 29.72 in WSW 6.5 mph 29.0 mph 57 % 0.00 in
14:40 58.4 °F 43.2 °F 29.72 in West 5.0 mph 29.0 mph 57 % 0.00 in
14:45 58.4 °F 43.2 °F 29.72 in SW 7.6 mph 29.0 mph 57 % 0.00 in
14:50 58.3 °F 42.7 °F 29.72 in WNW 4.8 mph 29.0 mph 56 % 0.00 in
14:55 58.2 °F 42.6 °F 29.72 in WNW 8.4 mph 29.0 mph 56 % 0.00 in
15:00 58.2 °F 43.0 °F 29.72 in WNW 4.4 mph 29.0 mph 57 % 0.00 in
15:05 58.1 °F 43.4 °F 29.72 in SW 3.0 mph 29.0 mph 58 % 0.00 in
15:10 58.0 °F 43.3 °F 29.73 in WSW 4.0 mph 29.0 mph 58 % 0.00 in
15:15 57.9 °F 43.2 °F 29.73 in WSW 1.6 mph 29.0 mph 58 % 0.00 in
15:20 57.8 °F 43.1 °F 29.73 in WSW 2.0 mph 29.0 mph 58 % 0.00 in
15:25 57.6 °F 43.4 °F 29.73 in SW 3.0 mph 29.0 mph 59 % 0.00 in
15:30 57.4 °F 43.2 °F 29.73 in SW 2.8 mph 29.0 mph 59 % 0.00 in
15:35 57.3 °F 43.1 °F 29.73 in SW 1.8 mph 29.0 mph 59 % 0.00 in
15:41 57.1 °F 42.9 °F 29.74 in WSW 3.3 mph 29.0 mph 59 % 0.00 in
15:46 56.8 °F 42.2 °F 29.74 in WNW 3.4 mph 29.0 mph 58 % 0.00 in
15:51 56.7 °F 42.1 °F 29.74 in WSW 4.1 mph 29.0 mph 58 % 0.00 in
15:56 56.6 °F 42.0 °F 29.74 in WSW 4.0 mph 29.0 mph 58 % 0.00 in
16:01 56.4 °F 41.8 °F 29.74 in West 3.4 mph 29.0 mph 58 % 0.00 in
16:06 56.2 °F 41.2 °F 29.75 in WNW 2.9 mph 29.0 mph 57 % 0.00 in
16:11 56.1 °F 40.6 °F 29.75 in NNW 3.8 mph 29.0 mph 56 % 0.00 in
16:16 55.9 °F 40.4 °F 29.75 in WSW 3.6 mph 29.0 mph 56 % 0.00 in
16:21 55.8 °F 40.3 °F 29.75 in WNW 0.4 mph 29.0 mph 56 % 0.00 in
16:26 55.6 °F 40.6 °F 29.75 in SW 1.8 mph 29.0 mph 57 % 0.00 in
16:31 55.3 °F 40.3 °F 29.76 in WSW 1.2 mph 29.0 mph 57 % 0.00 in
16:36 55.2 °F 40.2 °F 29.76 in West 1.1 mph 29.0 mph 57 % 0.00 in
16:41 55.0 °F 40.0 °F 29.76 in WNW 2.3 mph 29.0 mph 57 % 0.00 in
16:46 54.7 °F 40.2 °F 29.76 in West 1.6 mph 29.0 mph 58 % 0.00 in
16:51 54.5 °F 39.6 °F 29.76 in WNW 2.8 mph 29.0 mph 57 % 0.00 in
16:56 54.2 °F 39.7 °F 29.76 in WSW 3.5 mph 29.0 mph 58 % 0.00 in
17:02 54.1 °F 40.1 °F 29.76 in NW 2.0 mph 29.0 mph 59 % 0.00 in
17:07 53.9 °F 39.9 °F 29.77 in NW 4.9 mph 29.0 mph 59 % 0.00 in
17:12 53.8 °F 39.8 °F 29.77 in West 1.9 mph 29.0 mph 59 % 0.00 in
17:17 53.7 °F 39.3 °F 29.78 in West 1.9 mph 29.0 mph 58 % 0.00 in
17:22 53.5 °F 39.5 °F 29.78 in NW 2.3 mph 29.0 mph 59 % 0.00 in
17:27 53.3 °F 40.2 °F 29.78 in West 3.7 mph 29.0 mph 61 % 0.00 in
17:32 53.1 °F 40.4 °F 29.79 in WNW 1.8 mph 29.0 mph 62 % 0.00 in
17:37 52.8 °F 41.0 °F 29.79 in West 4.0 mph 29.0 mph 64 % 0.00 in
17:42 52.5 °F 41.1 °F 29.80 in NW 1.3 mph 29.0 mph 65 % 0.00 in
17:47 52.1 °F 40.7 °F 29.80 in WNW 2.5 mph 29.0 mph 65 % 0.00 in
17:52 51.8 °F 40.8 °F 29.80 in NW 0.7 mph 29.0 mph 66 % 0.00 in
17:57 51.5 °F 40.9 °F 29.80 in SW 0.8 mph 29.0 mph 67 % 0.00 in
18:03 51.1 °F 40.5 °F 29.80 in West 1.5 mph 29.0 mph 67 % 0.00 in
18:08 50.7 °F 40.5 °F 29.81 in West 1.5 mph 29.0 mph 68 % 0.00 in
18:13 50.3 °F 40.1 °F 29.81 in WNW 2.1 mph 29.0 mph 68 % 0.00 in
18:18 49.9 °F 40.1 °F 29.81 in WSW 1.7 mph 29.0 mph 69 % 0.00 in
18:23 49.7 °F 40.3 °F 29.81 in SW 0.7 mph 29.0 mph 70 % 0.00 in
18:28 49.5 °F 39.7 °F 29.81 in WNW 3.8 mph 29.0 mph 69 % 0.00 in
18:33 49.2 °F 39.5 °F 29.81 in West 0.7 mph 29.0 mph 69 % 0.00 in
18:38 49.0 °F 39.3 °F 29.82 in WNW 1.1 mph 29.0 mph 69 % 0.00 in
18:43 48.8 °F 39.1 °F 29.81 in WNW 1.6 mph 29.0 mph 69 % 0.00 in
18:48 48.7 °F 39.0 °F 29.81 in WSW 3.2 mph 29.0 mph 69 % 0.00 in
18:53 48.6 °F 38.9 °F 29.82 in West 1.7 mph 29.0 mph 69 % 0.00 in
18:58 48.4 °F 38.7 °F 29.82 in SW 0.6 mph 29.0 mph 69 % 0.00 in
19:03 48.3 °F 38.2 °F 29.83 in WSW 1.8 mph 29.0 mph 68 % 0.00 in
19:09 48.1 °F 38.4 °F 29.83 in West 2.7 mph 29.0 mph 69 % 0.00 in
19:14 48.0 °F 38.3 °F 29.83 in Calm   29.0 mph 69 % 0.00 in
19:19 47.9 °F 38.6 °F 29.84 in North 0.7 mph 29.0 mph 70 % 0.00 in
19:24 47.8 °F 38.8 °F 29.84 in NW 0.9 mph 29.0 mph 71 % 0.00 in
19:29 47.6 °F 38.7 °F 29.85 in NNW 2.0 mph 29.0 mph 71 % 0.00 in
19:34 47.4 °F 38.8 °F 29.84 in WNW 2.4 mph 29.0 mph 72 % 0.00 in
19:39 47.2 °F 38.6 °F 29.85 in WNW 1.3 mph 29.0 mph 72 % 0.00 in
19:44 46.9 °F 38.3 °F 29.85 in West 0.9 mph 29.0 mph 72 % 0.00 in
19:49 46.7 °F 38.1 °F 29.85 in WNW 2.3 mph 29.0 mph 72 % 0.00 in
19:54 46.5 °F 38.0 °F 29.85 in WNW 2.0 mph 6.0 mph 72 % 0.00 in
19:59 46.4 °F 38.2 °F 29.85 in WNW 0.3 mph 29.0 mph 73 % 0.00 in
20:04 46.3 °F 38.1 °F 29.86 in North 6.0 mph 9.0 mph 73 % 0.00 in
20:09 45.9 °F 38.1 °F 29.86 in NNE 3.0 mph 7.0 mph 74 % 0.00 in
20:14 45.6 °F 37.4 °F 29.87 in NNE 2.0 mph 7.0 mph 73 % 0.00 in
20:19 45.4 °F 37.2 °F 29.86 in North 1.0 mph 4.0 mph 73 % 0.00 in
20:24 45.0 °F 36.9 °F 29.86 in NNE 1.4 mph 29.0 mph 73 % 0.00 in
20:29 44.8 °F 36.7 °F 29.86 in NNE 0.1 mph 29.0 mph 73 % 0.00 in
20:34 44.6 °F 36.5 °F 29.86 in NNE 1.0 mph 2.0 mph 73 % 0.00 in
20:39 44.4 °F 36.3 °F 29.86 in Calm   3.0 mph 73 % 0.00 in
20:44 44.0 °F 36.2 °F 29.87 in NE 0.3 mph 29.0 mph 74 % 0.00 in
20:49 43.8 °F 36.4 °F 29.86 in Calm   29.0 mph 75 % 0.00 in
20:54 43.6 °F 36.2 °F 29.86 in Calm   1.0 mph 75 % 0.00 in
20:59 43.4 °F 36.0 °F 29.86 in Calm   29.0 mph 75 % 0.00 in
21:04 43.1 °F 36.0 °F 29.86 in ENE 0.8 mph 29.0 mph 76 % 0.00 in
21:10 42.8 °F 35.8 °F 29.87 in NNE 2.6 mph 29.0 mph 76 % 0.00 in
21:15 42.6 °F 35.6 °F 29.87 in NNE 3.9 mph 29.0 mph 76 % 0.00 in
21:20 42.3 °F 35.6 °F 29.87 in NNE 4.2 mph 29.0 mph 77 % 0.00 in
21:25 42.0 °F 35.0 °F 29.87 in North 3.4 mph 29.0 mph 76 % 0.00 in
21:30 41.8 °F 34.5 °F 29.87 in NNE 1.5 mph 29.0 mph 75 % 0.00 in
21:35 41.7 °F 34.4 °F 29.88 in NNE 1.7 mph 29.0 mph 75 % 0.00 in
21:40 41.6 °F 34.6 °F 29.88 in NNE 2.5 mph 29.0 mph 76 % 0.00 in
21:45 41.4 °F 34.7 °F 29.88 in NNE 3.5 mph 29.0 mph 77 % 0.00 in
21:50 41.3 °F 34.6 °F 29.88 in NNE 2.8 mph 29.0 mph 77 % 0.00 in
21:55 41.1 °F 34.4 °F 29.88 in NNE 3.3 mph 29.0 mph 77 % 0.00 in
22:00 41.0 °F 34.3 °F 29.88 in North 2.9 mph 29.0 mph 77 % 0.00 in
22:05 40.8 °F 33.8 °F 29.89 in NNE 2.9 mph 29.0 mph 76 % 0.00 in
22:10 40.7 °F 33.7 °F 29.89 in North 3.1 mph 29.0 mph 76 % 0.00 in
22:15 40.6 °F 33.6 °F 29.90 in NNE 2.8 mph 29.0 mph 76 % 0.00 in
22:21 40.5 °F 33.5 °F 29.90 in NNE 0.8 mph 29.0 mph 76 % 0.00 in
22:26 40.5 °F 33.5 °F 29.90 in NNE 2.0 mph 29.0 mph 76 % 0.00 in
22:31 40.4 °F 33.4 °F 29.90 in NNE 1.8 mph 29.0 mph 76 % 0.00 in
22:36 40.3 °F 33.3 °F 29.89 in NNE 1.6 mph 29.0 mph 76 % 0.00 in
22:41 40.2 °F 33.2 °F 29.90 in Calm   29.0 mph 76 % 0.00 in
22:46 40.1 °F 33.1 °F 29.89 in Calm   29.0 mph 76 % 0.00 in
22:51 40.0 °F 33.4 °F 29.89 in NNE 0.8 mph 29.0 mph 77 % 0.00 in
22:56 39.8 °F 33.2 °F 29.89 in Calm   29.0 mph 77 % 0.00 in
23:01 39.6 °F 33.3 °F 29.89 in NNE 1.5 mph 29.0 mph 78 % 0.00 in
23:06 39.5 °F 33.2 °F 29.89 in NNE 1.0 mph 29.0 mph 78 % 0.00 in
23:11 39.3 °F 33.3 °F 29.90 in NNE 0.6 mph 29.0 mph 79 % 0.00 in
23:16 39.2 °F 33.2 °F 29.90 in Calm   29.0 mph 79 % 0.00 in
23:21 38.9 °F 33.3 °F 29.90 in NNE 0.2 mph 29.0 mph 80 % 0.00 in
23:26 38.8 °F 33.5 °F 29.90 in NNE 0.2 mph 29.0 mph 81 % 0.00 in
23:32 38.6 °F 33.3 °F 29.90 in Calm   29.0 mph 81 % 0.00 in
23:37 38.4 °F 33.1 °F 29.90 in NW 1.9 mph 29.0 mph 81 % 0.00 in
23:42 38.3 °F 33.0 °F 29.89 in Calm   29.0 mph 81 % 0.00 in
23:47 38.2 °F 32.9 °F 29.90 in NW 3.4 mph 29.0 mph 81 % 0.00 in
23:52 38.2 °F 32.9 °F 29.89 in WNW 4.0 mph 29.0 mph 81 % 0.00 in
23:57 38.3 °F 33.0 °F 29.89 in West 4.0 mph 29.0 mph 81 % 0.00 in
Crab Meadow Weather
Compliments of Weather Underground - 3.25 mb

Script developed by  Jim McMurry - jmcmurry@mwt.net Adapted for the template by  Wim van der Kuil - Leuven-Template.eu

Astronomy: Pluto is not a planet, because it does not have a fixed orbit and it's orbit comes in between the orbit of another planet (Neptune).